Time;durP1;ratioP1;P1;durP2;ratioP2;P2;SDS_P1;SDS_P2;PMS_P1;PMS_P2;Temp;Humidity;BMP_temperature;BMP_pressure;BME280_temperature;BME280_humidity;BME280_pressure;Samples;Min_cycle;Max_cycle;Signal;HPM_P1;HPM_P2
2023/05/27 00:02:05;;;;;;;51.28;7.82;;;;;;;-144.73;100.00;54374.84;5106720;28;20058;-74
2023/05/27 00:04:31;;;;;;;41.50;7.03;;;;;;;-144.73;100.00;54319.44;5106224;28;20103;-74
2023/05/27 00:06:56;;;;;;;46.88;7.25;;;;;;;-144.73;100.00;54348.19;5109784;28;20038;-74
2023/05/27 00:09:22;;;;;;;45.00;8.65;;;;;;;-144.73;100.00;54321.50;5111455;28;20023;-74
2023/05/27 00:11:47;;;;;;;45.03;7.63;;;;;;;-144.73;100.00;54395.38;5109350;28;20042;-74
2023/05/27 00:14:12;;;;;;;40.00;7.65;;;;;;;-144.73;100.00;54376.91;5109805;28;20102;-74
2023/05/27 00:16:38;;;;;;;36.50;6.95;;;;;;;-144.73;100.00;54333.81;5109331;28;20019;-74
2023/05/27 00:19:03;;;;;;;38.13;7.53;;;;;;;-144.73;100.00;54300.97;5109876;28;20027;-74
2023/05/27 00:21:29;;;;;;;32.45;7.22;;;;;;;-144.73;100.00;54342.03;5109210;28;20036;-74
2023/05/27 00:23:57;;;;;;;29.20;6.63;;;;;;;-144.73;100.00;54350.22;5106364;28;20032;-74
2023/05/27 00:26:23;;;;;;;41.83;7.93;;;;;;;-144.73;100.00;54342.03;5110417;27;20500;-74
2023/05/27 00:28:48;;;;;;;33.05;7.32;;;;;;;-144.73;100.00;54337.91;5106566;28;20027;-74
2023/05/27 00:31:14;;;;;;;48.92;8.20;;;;;;;-144.73;100.00;54325.59;5108674;28;20089;-74
2023/05/27 00:33:40;;;;;;;43.60;7.93;;;;;;;-144.73;100.00;54342.03;5109088;28;20047;-74
2023/05/27 00:36:05;;;;;;;38.38;6.88;;;;;;;-144.73;100.00;54346.13;5108579;28;20032;-74
2023/05/27 00:38:30;;;;;;;33.45;7.78;;;;;;;-144.73;100.00;54339.97;5109207;28;20103;-74
2023/05/27 00:40:59;;;;;;;36.55;6.68;;;;;;;-144.73;100.00;54354.34;5109260;28;20062;-74
2023/05/27 00:43:25;;;;;;;36.03;8.00;;;;;;;-144.73;100.00;54370.75;5109469;28;20023;-74
2023/05/27 00:45:50;;;;;;;29.80;7.22;;;;;;;-144.73;100.00;54352.28;5109051;28;20119;-74
2023/05/27 00:48:15;;;;;;;45.50;7.28;;;;;;;-144.73;100.00;54370.75;5109396;28;20027;-74
2023/05/27 00:50:41;;;;;;;36.10;6.63;;;;;;;-144.73;100.00;54374.84;5108537;28;20202;-74
2023/05/27 00:53:07;;;;;;;43.15;7.00;;;;;;;-144.73;100.00;54333.81;5102152;28;20020;-74
2023/05/27 00:55:33;;;;;;;36.58;7.20;;;;;;;-144.73;100.00;54378.97;5109278;28;20047;-74
2023/05/27 00:57:59;;;;;;;44.55;7.30;;;;;;;-144.73;100.00;54307.13;5109399;28;20020;-73
2023/05/27 01:00:24;;;;;;;47.50;7.82;;;;;;;-144.73;100.00;54333.81;5102121;28;20059;-73
2023/05/27 01:02:50;;;;;;;34.50;6.80;;;;;;;-144.73;100.00;54378.97;5106354;28;20047;-74
2023/05/27 01:05:17;;;;;;;37.55;8.50;;;;;;;-144.73;100.00;54370.75;5106514;28;20024;-74
2023/05/27 01:08:17;;;;;;;40.65;7.43;;;;;;;-144.73;100.00;54350.22;5108816;28;20038;-73
2023/05/27 01:10:55;;;;;;;44.75;7.72;;;;;;;-144.73;100.00;54381.00;5106890;28;20040;-73
2023/05/27 01:13:33;;;;;;;43.05;6.75;;;;;;;-144.73;100.00;54337.91;5110122;28;20019;-70
2023/05/27 01:16:01;;;;;;;27.90;6.60;;;;;;;-144.73;100.00;54335.88;5113034;27;20062;-70
2023/05/27 01:18:29;;;;;;;44.35;8.05;;;;;;;-144.73;100.00;54344.06;5107243;28;20470;-70
2023/05/27 01:21:02;;;;;;;42.33;8.07;;;;;;;-144.73;100.00;54333.81;5111790;28;20053;-70
2023/05/27 01:23:28;;;;;;;42.50;8.30;;;;;;;-144.73;100.00;54329.72;5102797;28;20023;-70
2023/05/27 01:25:53;;;;;;;37.33;6.25;;;;;;;-144.73;100.00;54366.66;5112343;28;20028;-70
2023/05/27 01:28:19;;;;;;;32.63;6.90;;;;;;;-144.73;100.00;54370.75;5112324;28;20032;-71
2023/05/27 01:30:44;;;;;;;46.28;9.70;;;;;;;-144.73;100.00;54317.38;5111570;28;20038;-71
2023/05/27 01:33:15;;;;;;;48.47;7.20;;;;;;;-144.73;100.00;54346.13;5112320;28;20059;-71
2023/05/27 01:35:53;;;;;;;46.17;8.48;;;;;;;-144.73;100.00;54370.75;5110929;28;20031;-72
2023/05/27 01:38:23;;;;;;;44.03;8.75;;;;;;;-144.73;100.00;54317.38;5112050;28;20068;-72
2023/05/27 01:40:50;;;;;;;38.13;7.72;;;;;;;-144.73;100.00;54352.28;5111397;28;20024;-71
2023/05/27 01:43:18;;;;;;;47.97;7.95;;;;;;;-144.73;100.00;54354.34;5111867;28;20026;-71
2023/05/27 01:45:44;;;;;;;42.38;8.65;;;;;;;-144.73;100.00;54344.06;5111186;28;20047;-70
2023/05/27 01:48:09;;;;;;;34.38;6.05;;;;;;;-144.73;100.00;54350.22;5114793;28;20024;-70
2023/05/27 01:50:35;;;;;;;42.40;8.57;;;;;;;-144.73;100.00;54366.66;5115463;28;20068;-71
2023/05/27 01:53:03;;;;;;;44.53;8.55;;;;;;;-144.73;100.00;54378.97;5109166;28;20020;-70
2023/05/27 01:55:30;;;;;;;29.00;6.97;;;;;;;-144.73;100.00;54383.06;5110865;28;20028;-70
2023/05/27 01:57:55;;;;;;;44.97;8.38;;;;;;;-144.73;100.00;54333.81;5116710;28;20385;-69
2023/05/27 02:00:20;;;;;;;38.80;7.72;;;;;;;-144.73;100.00;54354.34;5116007;28;20047;-71
2023/05/27 02:02:46;;;;;;;52.58;8.68;;;;;;;-144.73;100.00;54354.34;5116451;28;20038;-71
2023/05/27 02:05:11;;;;;;;34.78;7.72;;;;;;;-144.73;100.00;54368.69;5113629;28;20069;-71
2023/05/27 02:07:37;;;;;;;43.70;8.32;;;;;;;-144.73;100.00;54350.22;5116694;27;20111;-71
2023/05/27 02:10:02;;;;;;;37.60;7.72;;;;;;;-144.73;100.00;54378.97;5115792;28;20085;-71
2023/05/27 02:12:27;;;;;;;43.28;8.38;;;;;;;-144.73;100.00;54358.44;5097964;28;20076;-71
2023/05/27 02:14:53;;;;;;;36.30;7.72;;;;;;;-144.73;100.00;54407.69;5092225;28;20024;-71
2023/05/27 02:17:18;;;;;;;48.10;8.23;;;;;;;-144.73;100.00;54381.00;5095765;28;20027;-75
2023/05/27 02:19:43;;;;;;;40.45;7.53;;;;;;;-144.73;100.00;54329.72;5093385;28;20068;-75
2023/05/27 02:22:09;;;;;;;50.17;8.68;;;;;;;-144.73;100.00;54366.66;5101582;28;20383;-75
2023/05/27 02:24:35;;;;;;;41.33;8.20;;;;;;;-144.73;100.00;54333.81;5113034;28;20039;-75
2023/05/27 02:27:01;;;;;;;45.25;7.57;;;;;;;-144.73;100.00;54354.34;5113998;28;20186;-73
2023/05/27 02:29:26;;;;;;;44.28;7.22;;;;;;;-144.73;100.00;54370.75;5112978;28;20440;-74
2023/05/27 02:31:51;;;;;;;39.53;8.13;;;;;;;-144.73;100.00;54317.38;5113465;28;20134;-74
2023/05/27 02:34:17;;;;;;;47.55;8.43;;;;;;;-144.73;100.00;54337.91;5107270;28;20028;-74
2023/05/27 02:36:42;;;;;;;43.22;7.40;;;;;;;-144.73;100.00;54325.59;5106255;28;20043;-75
2023/05/27 02:39:08;;;;;;;35.20;7.47;;;;;;;-144.73;100.00;54366.66;5107004;28;20049;-74
2023/05/27 02:41:34;;;;;;;47.08;8.05;;;;;;;-144.73;100.00;54329.72;5107602;28;20028;-74
2023/05/27 02:43:59;;;;;;;45.20;7.72;;;;;;;-144.73;100.00;54329.72;5114115;28;20026;-74
2023/05/27 02:46:25;;;;;;;36.42;9.13;;;;;;;-144.73;100.00;54342.03;5111795;28;20117;-74
2023/05/27 02:48:50;;;;;;;31.67;7.22;;;;;;;-144.73;100.00;54374.84;5109244;27;20029;-75
2023/05/27 02:51:15;;;;;;;40.28;7.95;;;;;;;-144.73;100.00;54362.53;5105159;28;20114;-74
2023/05/27 02:53:41;;;;;;;40.85;6.75;;;;;;;-144.73;100.00;54387.19;5093482;28;20108;-73
2023/05/27 02:56:06;;;;;;;39.35;7.78;;;;;;;-144.73;100.00;54337.91;5091888;28;20036;-75
2023/05/27 02:58:32;;;;;;;35.20;8.10;;;;;;;-144.73;100.00;54335.88;5091869;28;20024;-75
2023/05/27 03:00:57;;;;;;;36.40;7.82;;;;;;;-144.73;100.00;54370.75;5097763;28;20039;-74
2023/05/27 03:03:23;;;;;;;38.42;8.45;;;;;;;-144.73;100.00;54395.38;5113168;27;20028;-74
2023/05/27 03:05:49;;;;;;;46.05;8.82;;;;;;;-144.73;100.00;54358.44;5111153;28;20031;-74
2023/05/27 03:08:15;;;;;;;34.03;7.28;;;;;;;-144.73;100.00;54366.66;5113487;28;20031;-74
2023/05/27 03:10:40;;;;;;;34.10;8.27;;;;;;;-144.73;100.00;54356.38;5105182;28;20039;-74
2023/05/27 03:13:06;;;;;;;36.75;8.82;;;;;;;-144.73;100.00;54374.84;5113640;28;20016;-74
2023/05/27 03:15:31;;;;;;;30.48;7.95;;;;;;;-144.73;100.00;54370.75;5111398;28;20028;-75
2023/05/27 03:17:57;;;;;;;36.35;8.10;;;;;;;-144.73;100.00;54366.66;5112610;28;20077;-74
2023/05/27 03:20:22;;;;;;;45.00;7.90;;;;;;;-144.73;100.00;54350.22;5105768;28;20040;-73
2023/05/27 03:22:48;;;;;;;27.60;6.80;;;;;;;-144.73;100.00;54378.97;5112100;28;20023;-74
2023/05/27 03:25:14;;;;;;;36.67;8.63;;;;;;;-144.73;100.00;54337.91;5112456;28;20069;-74
2023/05/27 03:27:40;;;;;;;57.50;8.60;;;;;;;-144.73;100.00;54399.50;5111711;28;20024;-74
2023/05/27 03:30:07;;;;;;;41.75;7.88;;;;;;;-144.73;100.00;54358.44;5111462;28;20035;-74
2023/05/27 03:32:33;;;;;;;32.83;8.02;;;;;;;-144.73;100.00;54346.13;5101220;28;20031;-74
2023/05/27 03:34:59;;;;;;;38.78;8.85;;;;;;;-144.73;100.00;54362.53;5084466;28;20050;-74
2023/05/27 03:37:24;;;;;;;40.65;8.45;;;;;;;-144.73;100.00;54354.34;5081975;28;20020;-74
2023/05/27 03:39:49;;;;;;;53.65;9.05;;;;;;;-144.73;100.00;54309.19;5092279;28;20032;-74
2023/05/27 03:42:14;;;;;;;47.05;7.90;;;;;;;-144.73;100.00;54374.84;5106686;28;20023;-74
2023/05/27 03:44:40;;;;;;;39.20;9.40;;;;;;;-144.73;100.00;54374.84;5110857;28;20046;-74
2023/05/27 03:47:05;;;;;;;40.70;7.65;;;;;;;-144.73;100.00;54354.34;5111096;28;20498;-74
2023/05/27 03:49:31;;;;;;;34.80;7.65;;;;;;;-144.73;100.00;54370.75;5111238;28;20019;-74
2023/05/27 03:51:56;;;;;;;36.97;7.30;;;;;;;-144.73;100.00;54354.34;5111871;28;20028;-74
2023/05/27 03:54:22;;;;;;;36.28;8.18;;;;;;;-144.73;100.00;54329.72;5107771;28;20023;-73
2023/05/27 03:56:47;;;;;;;49.88;10.32;;;;;;;-144.73;100.00;54399.50;5110507;28;20060;-74
2023/05/27 03:59:13;;;;;;;41.60;9.23;;;;;;;-144.73;100.00;54342.03;5110942;28;20034;-74
2023/05/27 04:01:38;;;;;;;31.50;7.00;;;;;;;-144.73;100.00;54346.13;5110625;28;20027;-74
2023/05/27 04:04:04;;;;;;;44.40;8.88;;;;;;;-144.73;100.00;54344.06;5111043;28;20106;-76
2023/05/27 04:06:31;;;;;;;41.45;7.85;;;;;;;-144.73;100.00;54370.75;5108604;27;20028;-74
2023/05/27 04:08:57;;;;;;;27.58;7.53;;;;;;;-144.73;100.00;54342.03;5105630;28;20011;-74
2023/05/27 04:11:22;;;;;;;35.45;7.20;;;;;;;-144.73;100.00;54348.19;5108258;28;20031;-74
2023/05/27 04:13:48;;;;;;;34.53;7.35;;;;;;;-144.73;100.00;54350.22;5103991;28;20038;-74
2023/05/27 04:16:15;;;;;;;34.83;8.40;;;;;;;-144.73;100.00;54383.06;5111924;28;20034;-74
2023/05/27 04:18:40;;;;;;;41.75;8.30;;;;;;;-144.73;100.00;54358.44;5101346;28;20028;-74
2023/05/27 04:21:06;;;;;;;47.53;9.75;;;;;;;-144.73;100.00;54346.13;5097659;28;20038;-74
2023/05/27 04:23:31;;;;;;;32.60;6.90;;;;;;;-144.73;100.00;54391.28;5090342;28;20114;-74
2023/05/27 04:25:56;;;;;;;29.20;6.97;;;;;;;-144.73;100.00;54374.84;5090342;28;20072;-74
2023/05/27 04:28:22;;;;;;;29.45;7.18;;;;;;;-144.73;100.00;54358.44;5090811;28;20047;-74
2023/05/27 04:30:48;;;;;;;36.85;7.55;;;;;;;-144.73;100.00;54362.53;5077914;28;20032;-74
2023/05/27 04:33:15;;;;;;;35.47;7.82;;;;;;;-144.73;100.00;54395.38;5087484;28;20058;-74
2023/05/27 04:35:43;;;;;;;47.15;8.25;;;;;;;-144.73;100.00;54358.44;5075442;28;20061;-74
2023/05/27 04:38:10;;;;;;;43.35;8.45;;;;;;;-144.73;100.00;54381.00;5079238;28;20028;-74
2023/05/27 04:40:36;;;;;;;47.33;9.02;;;;;;;-144.73;100.00;54366.66;5089514;28;20044;-74
2023/05/27 04:43:01;;;;;;;40.67;7.78;;;;;;;-144.73;100.00;54354.34;5079843;28;20046;-74
2023/05/27 04:45:29;;;;;;;32.10;6.72;;;;;;;-144.73;100.00;54358.44;5081507;28;20036;-74
2023/05/27 04:47:55;;;;;;;40.10;8.55;;;;;;;-144.73;100.00;54342.03;5087750;28;20015;-74
2023/05/27 04:50:21;;;;;;;39.85;7.90;;;;;;;-144.73;100.00;54354.34;5082928;28;20035;-73
2023/05/27 04:52:46;;;;;;;26.10;7.47;;;;;;;-144.73;100.00;54391.28;5074571;28;20062;-74
2023/05/27 04:55:11;;;;;;;38.33;7.50;;;;;;;-144.73;100.00;54350.22;5084607;28;20449;-74
2023/05/27 04:57:40;;;;;;;33.58;7.88;;;;;;;-144.73;100.00;54325.59;5103858;28;20027;-74
2023/05/27 05:02:35;;;;;;;38.60;7.53;;;;;;;-144.73;100.00;54337.91;5094408;28;20483;-74
2023/05/27 05:05:02;;;;;;;38.10;8.52;;;;;;;-144.73;100.00;54354.34;5079420;28;20019;-74
2023/05/27 05:07:27;;;;;;;29.92;6.75;;;;;;;-144.73;100.00;54346.13;5076912;28;20016;-74
2023/05/27 05:09:53;;;;;;;44.13;8.13;;;;;;;-144.73;100.00;54366.66;5073724;28;20475;-74
2023/05/27 05:12:18;;;;;;;35.58;7.40;;;;;;;-144.73;100.00;54407.69;5079994;28;20085;-74
2023/05/27 05:14:43;;;;;;;31.83;6.88;;;;;;;-144.73;100.00;54346.13;5098607;28;20096;-73
2023/05/27 05:17:09;;;;;;;26.83;6.88;;;;;;;-144.73;100.00;54378.97;5098831;28;20028;-73
2023/05/27 05:19:34;;;;;;;38.00;8.80;;;;;;;-144.73;100.00;54399.50;5083766;28;20027;-69
2023/05/27 05:21:59;;;;;;;42.97;8.00;;;;;;;-144.73;100.00;54389.22;5072146;28;20372;-69
2023/05/27 05:24:25;;;;;;;42.25;7.45;;;;;;;-144.73;100.00;54319.44;5072758;28;20028;-69
2023/05/27 05:26:50;;;;;;;33.33;7.07;;;;;;;-144.73;100.00;54358.44;5090231;28;20060;-69
2023/05/27 05:29:15;;;;;;;36.50;7.32;;;;;;;-144.73;100.00;54395.38;5091090;28;20490;-69
2023/05/27 05:31:41;;;;;;;42.00;8.13;;;;;;;-144.73;100.00;54358.44;5072130;28;20039;-69
2023/05/27 05:34:07;;;;;;;36.55;8.80;;;;;;;-144.73;100.00;54350.22;5091084;28;20090;-69
2023/05/27 05:36:33;;;;;;;34.60;8.45;;;;;;;-144.73;100.00;54387.19;5090529;28;20032;-69
2023/05/27 05:38:58;;;;;;;35.60;7.55;;;;;;;-144.73;100.00;54374.84;5072695;28;20024;-69
2023/05/27 05:41:23;;;;;;;31.33;7.30;;;;;;;-144.73;100.00;54376.91;5080567;28;20027;-69
2023/05/27 05:43:49;;;;;;;33.95;7.10;;;;;;;-144.73;100.00;54329.72;5111405;28;20023;-69
2023/05/27 05:46:14;;;;;;;37.38;6.95;;;;;;;-144.73;100.00;54352.28;5092509;28;20032;-69
2023/05/27 05:48:39;;;;;;;33.38;7.05;;;;;;;-144.73;100.00;54383.06;5110799;28;20016;-69
2023/05/27 05:51:05;;;;;;;41.30;8.57;;;;;;;-144.73;100.00;54415.91;5092273;28;20038;-69
2023/05/27 05:53:32;;;;;;;42.67;9.23;;;;;;;-144.73;100.00;54325.59;5092664;28;20050;-69
2023/05/27 05:55:57;;;;;;;39.35;7.68;;;;;;;-144.73;100.00;54331.75;5092876;28;20120;-69
2023/05/27 05:58:22;;;;;;;31.50;7.05;;;;;;;-144.73;100.00;54370.75;5111302;28;20478;-69
2023/05/27 06:00:48;;;;;;;35.47;6.93;;;;;;;-144.73;100.00;54329.72;5110755;28;20066;-69
2023/05/27 06:03:13;;;;;;;35.78;7.85;;;;;;;-144.73;100.00;54366.66;5092923;28;20053;-69
2023/05/27 06:05:38;;;;;;;34.42;6.13;;;;;;;-144.73;100.00;54333.81;5092108;28;20047;-69
2023/05/27 06:08:04;;;;;;;34.08;6.55;;;;;;;-144.73;100.00;54342.03;5093112;28;20031;-69
2023/05/27 06:10:29;;;;;;;39.15;7.57;;;;;;;-144.73;100.00;54383.06;5091901;28;20040;-70
2023/05/27 06:12:54;;;;;;;31.27;6.25;;;;;;;-144.73;100.00;54350.22;5092571;28;20020;-69
2023/05/27 06:15:20;;;;;;;42.65;8.00;;;;;;;-144.73;100.00;54387.19;5110755;28;20032;-69
2023/05/27 06:17:47;;;;;;;32.53;7.20;;;;;;;-144.73;100.00;54374.84;5092518;28;20023;-69
2023/05/27 06:20:12;;;;;;;27.02;6.35;;;;;;;-144.73;100.00;54366.66;5092070;28;20081;-70
2023/05/27 06:22:37;;;;;;;29.90;5.95;;;;;;;-144.73;100.00;54362.53;5092636;28;20024;-70
2023/05/27 06:25:03;;;;;;;42.70;7.38;;;;;;;-144.73;100.00;54354.34;5090456;28;20093;-70
2023/05/27 06:27:29;;;;;;;36.47;6.38;;;;;;;-144.73;100.00;54407.69;5088497;28;20024;-70
2023/05/27 06:29:56;;;;;;;31.88;6.95;;;;;;;-144.73;100.00;54333.81;5080099;28;20024;-70
2023/05/27 06:32:21;;;;;;;27.52;6.40;;;;;;;-144.73;100.00;54370.75;5081064;28;20054;-70
2023/05/27 06:34:47;;;;;;;22.15;5.55;;;;;;;-144.73;100.00;54366.66;5093151;28;20027;-70
2023/05/27 06:37:12;;;;;;;29.98;6.53;;;;;;;-144.73;100.00;54354.34;5089953;28;20020;-70
2023/05/27 06:39:37;;;;;;;32.90;6.80;;;;;;;-144.73;100.00;54368.69;5102315;28;20032;-71
2023/05/27 06:42:03;;;;;;;29.25;6.32;;;;;;;-144.73;100.00;54391.28;5076468;28;20028;-69
2023/05/27 06:44:28;;;;;;;32.67;7.65;;;;;;;-144.73;100.00;54378.97;5080334;28;20056;-70
2023/05/27 06:46:53;;;;;;;40.65;7.05;;;;;;;-144.73;100.00;54378.97;5085767;28;20115;-70
2023/05/27 06:49:19;;;;;;;32.78;6.40;;;;;;;-144.73;100.00;54342.03;5075371;28;20467;-69
2023/05/27 06:51:44;;;;;;;24.73;5.38;;;;;;;-144.73;100.00;54407.69;5086999;28;20056;-70
2023/05/27 06:54:10;;;;;;;33.13;6.97;;;;;;;-144.73;100.00;54364.59;5088064;28;20027;-70
2023/05/27 06:56:35;;;;;;;25.90;6.05;;;;;;;-144.73;100.00;54346.13;5084099;28;20032;-70
2023/05/27 06:59:00;;;;;;;31.42;6.13;;;;;;;-144.73;100.00;54378.97;5098897;28;20028;-71
2023/05/27 07:01:26;;;;;;;30.20;5.95;;;;;;;-144.73;100.00;54415.91;5077541;28;20043;-70
2023/05/27 07:03:51;;;;;;;22.70;5.93;;;;;;;-144.73;100.00;54358.44;5083573;28;20035;-70
2023/05/27 07:06:17;;;;;;;35.10;5.78;;;;;;;-144.73;100.00;54354.34;5109030;28;20032;-70
2023/05/27 07:08:43;;;;;;;28.33;5.55;;;;;;;-144.73;100.00;54370.75;5075199;28;20016;-74
2023/05/27 07:11:08;;;;;;;31.50;6.25;;;;;;;-144.73;100.00;54366.66;5108348;28;20521;-74
2023/05/27 07:13:34;;;;;;;35.17;6.78;;;;;;;-144.73;97.62;54350.22;5086602;28;20023;-74
2023/05/27 07:15:59;;;;;;;36.85;6.55;;;;;;;-144.73;96.74;54333.81;5113101;28;20486;-74
2023/05/27 07:18:24;;;;;;;24.15;5.20;;;;;;;-144.73;98.54;54385.13;5085842;28;20024;-74
2023/05/27 07:20:50;;;;;;;37.05;6.82;;;;;;;-144.73;97.77;54333.81;5095556;28;20036;-74
2023/05/27 07:23:16;;;;;;;29.75;5.82;;;;;;;-144.73;96.07;54378.97;5071633;28;20055;-74
2023/05/27 07:25:41;;;;;;;30.77;7.60;;;;;;;-144.73;94.72;54374.84;5083681;28;20055;-74
2023/05/27 07:28:06;;;;;;;42.22;7.47;;;;;;;-144.73;96.48;54317.38;5075453;28;20032;-74
2023/05/27 07:30:32;;;;;;;39.13;6.63;;;;;;;-144.73;93.59;54325.59;5092553;28;20039;-75
2023/05/27 07:32:57;;;;;;;26.00;6.05;;;;;;;-144.73;94.18;54296.88;5113704;28;20019;-74
2023/05/27 07:35:23;;;;;;;31.90;6.20;;;;;;;-144.73;92.42;54317.38;5103864;28;20046;-74
2023/05/27 07:37:48;;;;;;;33.40;7.07;;;;;;;-144.73;90.97;54350.22;5083406;28;20111;-75
2023/05/27 07:40:13;;;;;;;27.60;6.40;;;;;;;-144.73;85.91;54366.66;5092992;28;20055;-75
2023/05/27 07:42:39;;;;;;;22.40;5.35;;;;;;;-144.73;88.18;54313.28;5091119;28;20496;-75
2023/05/27 07:45:05;;;;;;;37.00;6.72;;;;;;;-144.73;87.28;54300.97;5091952;28;20035;-75
2023/05/27 07:47:30;;;;;;;28.73;6.57;;;;;;;-144.73;83.76;54346.13;5092312;28;20020;-75
2023/05/27 07:49:55;;;;;;;29.52;6.63;;;;;;;-144.73;82.71;54354.34;5113149;28;20023;-75
2023/05/27 07:52:21;;;;;;;27.77;6.57;;;;;;;-144.73;81.22;54313.28;5078983;28;20085;-74
2023/05/27 07:54:47;;;;;;;26.33;6.22;;;;;;;-144.73;82.45;54300.97;5092348;28;20024;-74
2023/05/27 07:57:14;;;;;;;20.83;5.20;;;;;;;-144.73;81.20;54346.13;5093321;28;20082;-74
2023/05/27 07:59:39;;;;;;;32.80;6.15;;;;;;;-144.73;79.07;54313.28;5073944;28;20031;-74
2023/05/27 08:02:08;;;;;;;29.52;7.03;;;;;;;-144.73;78.03;54358.44;5106065;28;20034;-75
2023/05/27 08:04:33;;;;;;;24.63;6.22;;;;;;;-144.73;77.66;54307.13;5100624;28;20016;-75
2023/05/27 08:06:59;;;;;;;32.53;6.97;;;;;;;-144.73;76.32;54292.75;5088742;28;20068;-74
2023/05/27 08:09:24;;;;;;;27.88;5.72;;;;;;;-144.73;74.42;54294.81;5092218;28;20047;-75
2023/05/27 08:11:51;;;;;;;24.98;6.35;;;;;;;-144.73;73.91;54358.44;5081758;28;20043;-75
2023/05/27 08:14:17;;;;;;;23.95;5.38;;;;;;;-144.73;73.03;54300.97;5074535;28;20032;-74
2023/05/27 08:16:42;;;;;;;30.00;6.28;;;;;;;-144.73;71.71;54321.50;5073930;28;20046;-74
2023/05/27 08:19:08;;;;;;;31.52;5.82;;;;;;;-144.73;70.47;54325.59;5084212;28;20110;-74
2023/05/27 08:21:33;;;;;;;26.75;4.97;;;;;;;-144.73;71.67;54309.19;5073561;28;20111;-74
2023/05/27 08:23:58;;;;;;;24.73;5.68;;;;;;;-144.73;70.77;54305.06;5084935;28;20107;-74
2023/05/27 08:26:24;;;;;;;24.40;5.43;;;;;;;-144.73;72.20;54337.91;5082183;28;20040;-74
2023/05/27 08:28:49;;;;;;;24.00;6.07;;;;;;;-144.73;74.15;54317.38;5077807;28;20110;-74
2023/05/27 08:31:14;;;;;;;23.23;6.05;;;;;;;-144.73;71.41;54342.03;5086789;28;20421;-74
2023/05/27 08:33:40;;;;;;;33.42;6.88;;;;;;;-144.73;69.95;54290.72;5110838;28;20039;-74
2023/05/27 08:36:06;;;;;;;22.88;5.75;;;;;;;-144.73;69.03;54329.72;5093634;28;20030;-74
2023/05/27 08:38:31;;;;;;;29.70;6.10;;;;;;;-144.73;66.78;54309.19;5094634;28;20051;-74
2023/05/27 08:40:58;;;;;;;25.45;9.88;;;;;;;-144.73;64.51;54317.38;5073907;28;20491;-74
2023/05/27 08:43:24;;;;;;;24.38;5.38;;;;;;;-144.73;63.23;54305.06;5099189;28;20116;-74
2023/05/27 08:45:50;;;;;;;34.40;6.20;;;;;;;-144.73;60.98;54276.34;5078607;28;20033;-74
2023/05/27 08:48:15;;;;;;;25.52;6.28;;;;;;;-144.73;60.54;54294.81;5074344;28;20023;-74
2023/05/27 08:50:41;;;;;;;23.48;6.30;;;;;;;-144.73;62.90;54292.75;5090407;28;20509;-75
2023/05/27 08:53:08;;;;;;;24.83;5.25;;;;;;;-144.73;63.51;54317.38;5073642;28;20028;-75
2023/05/27 08:55:34;;;;;;;30.65;6.38;;;;;;;-144.73;62.77;54374.84;5092528;28;20044;-74
2023/05/27 08:58:01;;;;;;;27.65;6.43;;;;;;;-144.73;62.22;54313.28;5070841;28;20017;-74
2023/05/27 09:00:27;;;;;;;30.65;7.00;;;;;;;-144.73;62.68;54251.72;5087494;28;20470;-75
2023/05/27 09:02:59;;;;;;;34.08;7.13;;;;;;;-144.73;61.12;54309.19;5092360;28;20096;-75
2023/05/27 09:05:25;;;;;;;29.55;6.35;;;;;;;-144.73;58.79;54333.81;5091813;28;20043;-74
2023/05/27 09:07:51;;;;;;;30.35;6.85;;;;;;;-144.73;62.18;54317.38;5087498;28;20016;-75
2023/05/27 09:10:16;;;;;;;31.17;6.70;;;;;;;-144.73;61.07;54305.06;5085521;28;20074;-74
2023/05/27 09:12:44;;;;;;;25.45;5.97;;;;;;;-144.73;60.33;54342.03;5079557;28;20066;-74
2023/05/27 09:15:11;;;;;;;31.25;6.20;;;;;;;-144.73;62.42;54329.72;5085654;28;20032;-74
2023/05/27 09:17:46;;;;;;;25.08;5.82;;;;;;;-144.73;61.64;54342.03;5091271;28;20049;-73
2023/05/27 09:20:12;;;;;;;31.80;6.20;;;;;;;-144.73;62.03;54313.28;5091103;28;20032;-74
2023/05/27 09:22:39;;;;;;;25.58;6.30;;;;;;;-144.73;60.13;54319.44;5088378;28;20028;-75
2023/05/27 09:25:04;;;;;;;28.63;5.93;;;;;;;-144.73;60.66;54292.75;5084625;28;20084;-75
2023/05/27 09:27:31;;;;;;;23.42;5.97;;;;;;;-144.73;58.39;54317.38;5071536;28;20112;-75
2023/05/27 09:29:58;;;;;;;31.85;7.18;;;;;;;-144.73;60.61;54321.50;5087131;28;20047;-75
2023/05/27 09:32:28;;;;;;;17.77;6.07;;;;;;;-144.73;58.05;54276.34;5077444;28;20017;-75
2023/05/27 09:34:54;;;;;;;26.85;6.55;;;;;;;-144.73;57.73;54276.34;5072623;28;20024;-75
2023/05/27 09:37:24;;;;;;;25.33;6.20;;;;;;;-144.73;54.21;54257.88;5075321;28;20333;-75
2023/05/27 09:39:51;;;;;;;25.48;7.13;;;;;;;-144.73;53.08;54255.81;5087618;28;20048;-75
2023/05/27 09:42:18;;;;;;;17.67;5.82;;;;;;;-144.73;51.02;54313.28;5086649;28;20058;-75
2023/05/27 09:44:48;;;;;;;22.23;6.13;;;;;;;-144.73;51.26;54276.34;5082397;28;20031;-75
2023/05/27 09:47:15;;;;;;;27.98;6.43;;;;;;;-144.73;49.49;54296.88;5081133;28;20016;-75
2023/05/27 09:49:43;;;;;;;32.40;6.00;;;;;;;-144.73;50.49;54276.34;5086446;28;20423;-75
2023/05/27 09:52:11;;;;;;;25.17;5.97;;;;;;;-144.73;48.98;54276.34;5092728;28;20046;-75
2023/05/27 09:54:37;;;;;;;27.48;6.85;;;;;;;-144.73;50.07;54288.66;5109560;28;20019;-76
2023/05/27 09:57:06;;;;;;;22.05;5.82;;;;;;;-144.73;52.06;54325.59;5072989;28;20115;-75
2023/05/27 09:59:32;;;;;;;20.00;5.80;;;;;;;-144.73;52.82;54305.06;5073137;28;20031;-75
2023/05/27 10:02:01;;;;;;;28.50;6.75;;;;;;;-144.73;51.61;54300.97;5085328;28;20028;-75
2023/05/27 10:04:28;;;;;;;27.67;6.70;;;;;;;-144.73;53.00;54321.50;5058806;28;20038;-73
2023/05/27 10:06:54;;;;;;;25.48;6.03;;;;;;;-144.73;54.00;54309.19;5091001;28;20031;-74
2023/05/27 10:09:19;;;;;;;25.85;6.40;;;;;;;-144.73;53.62;54327.66;5073769;28;20027;-74
2023/05/27 10:11:45;;;;;;;22.98;7.40;;;;;;;-144.73;53.07;54313.28;5090504;28;20028;-75
2023/05/27 10:14:11;;;;;;;27.40;6.90;;;;;;;-144.73;54.48;54307.13;5092254;28;20028;-74
2023/05/27 10:16:37;;;;;;;21.75;6.07;;;;;;;-144.73;52.91;54329.72;5074420;28;20035;-75
2023/05/27 10:19:08;;;;;;;27.65;6.40;;;;;;;-144.73;52.00;54317.38;5067394;28;20017;-74
2023/05/27 10:21:42;;;;;;;26.27;6.20;;;;;;;-144.73;52.50;54309.19;5086045;28;20059;-75
2023/05/27 10:24:10;;;;;;;21.65;5.20;;;;;;;-144.73;51.60;54284.56;5096679;28;20020;-75
2023/05/27 10:26:38;;;;;;;27.80;6.82;;;;;;;-144.73;49.97;54239.41;5097509;28;20044;-75
2023/05/27 10:29:13;;;;;;;21.77;6.18;;;;;;;-144.73;48.40;54300.97;5093502;28;20024;-74
2023/05/27 10:31:50;;;;;;;22.25;5.72;;;;;;;-144.73;45.38;54305.06;5092235;28;20039;-76
2023/05/27 10:34:15;;;;;;;20.85;6.65;;;;;;;-144.73;44.06;54305.06;5084382;28;20054;-76
2023/05/27 10:36:42;;;;;;;26.98;7.00;;;;;;;-144.73;42.35;54259.91;5090555;28;20021;-75
2023/05/27 10:39:18;;;;;;;17.48;5.70;;;;;;;-144.73;42.87;54268.13;5098386;28;20020;-75
2023/05/27 10:41:50;;;;;;;22.95;6.55;;;;;;;-144.73;42.72;54280.44;5087475;28;20051;-76
2023/05/27 10:44:25;;;;;;;;;;;;;;;-144.73;43.04;54280.44;5100222;28;20049;-75
2023/05/27 10:47:00;;;;;;;18.35;5.85;;;;;;;-144.73;38.51;54288.66;5095936;28;19962;-75
2023/05/27 10:49:27;;;;;;;18.98;5.63;;;;;;;-144.73;39.87;54257.88;5090287;28;20088;-75
2023/05/27 10:51:53;;;;;;;16.27;5.60;;;;;;;-144.73;39.51;54227.09;5085742;28;20043;-75
2023/05/27 10:54:18;;;;;;;23.23;6.20;;;;;;;-144.73;41.22;54231.19;5087843;28;20167;-75
2023/05/27 10:56:50;;;;;;;20.48;6.13;;;;;;;-144.73;40.35;54284.56;5086123;28;20127;-74
2023/05/27 10:59:24;;;;;;;25.13;6.72;;;;;;;-144.73;39.93;54247.59;5086498;28;20012;-75
2023/05/27 11:01:52;;;;;;;20.77;6.55;;;;;;;-144.73;40.18;54204.50;5091433;28;20043;-75
2023/05/27 11:04:18;;;;;;;19.67;5.45;;;;;;;-144.73;38.59;54231.19;5099794;28;20031;-74